createdAt,value
2022-11-25T00:01:37.080Z,71.75
2022-11-25T00:04:04.226Z,73.00
2022-11-25T00:06:33.727Z,73.65
2022-11-25T00:09:06.626Z,74.06
2022-11-25T00:11:39.592Z,73.91
2022-11-25T00:14:15.323Z,73.95
2022-11-25T00:16:46.727Z,73.81
2022-11-25T00:19:15.367Z,74.05
2022-11-25T00:21:42.867Z,74.23
2022-11-25T00:24:13.049Z,74.86
2022-11-25T00:26:39.850Z,74.98
2022-11-25T00:29:08.933Z,75.22
2022-11-25T00:31:38.517Z,75.56
2022-11-25T00:34:05.642Z,75.70
2022-11-25T00:36:35.043Z,76.07
2022-11-25T00:39:06.166Z,76.98
2022-11-25T00:41:51.896Z,76.51
2022-11-25T00:44:42.174Z,76.02
2022-11-25T00:47:20.947Z,76.43
2022-11-25T00:49:53.406Z,76.96
2022-11-25T00:52:25.736Z,78.02
2022-11-25T00:54:54.211Z,77.71
2022-11-25T00:57:24.731Z,77.29
2022-11-25T00:59:51.934Z,78.18
2022-11-25T01:02:19.367Z,77.72
2022-11-25T01:04:49.156Z,77.25
2022-11-25T01:07:16.620Z,78.31
2022-11-25T01:09:43.874Z,78.50
2022-11-25T01:12:10.598Z,78.21
2022-11-25T01:14:38.348Z,78.74
2022-11-25T01:17:05.848Z,78.59
2022-11-25T01:19:32.864Z,78.43
2022-11-25T01:22:00.208Z,78.10
2022-11-25T01:24:27.282Z,77.84
2022-11-25T01:26:55.966Z,77.07
2022-11-25T01:29:24.077Z,76.93
2022-11-25T01:31:51.547Z,77.91
2022-11-25T01:34:34.715Z,77.99
2022-11-25T01:37:09.646Z,77.80
2022-11-25T01:39:39.019Z,79.17
2022-11-25T01:42:11.857Z,77.70
2022-11-25T01:44:40.310Z,77.94
2022-11-25T01:47:07.432Z,78.92
2022-11-25T01:50:03.728Z,77.91
2022-11-25T01:52:35.058Z,78.33
2022-11-25T01:55:16.306Z,77.23
2022-11-25T01:57:48.839Z,77.70
2022-11-25T02:02:59.874Z,77.98
2022-11-25T02:05:38.447Z,77.20
2022-11-25T02:08:13.268Z,76.51
2022-11-25T02:10:42.505Z,76.59
2022-11-25T02:13:10.788Z,78.39
2022-11-25T02:15:37.625Z,77.92
2022-11-25T02:18:05.299Z,78.96
2022-11-25T02:20:32.614Z,78.27
2022-11-25T02:23:29.009Z,77.71
2022-11-25T02:25:55.969Z,78.05
2022-11-25T02:28:30.482Z,77.80
2022-11-25T02:30:58.954Z,78.52
2022-11-25T02:33:27.605Z,78.79
2022-11-25T02:36:01.226Z,77.60
2022-11-25T02:38:42.821Z,77.96
2022-11-25T02:41:24.003Z,78.07
2022-11-25T02:44:00.676Z,78.21
2022-11-25T02:46:29.970Z,78.81
2022-11-25T02:49:08.794Z,78.40
2022-11-25T02:51:37.085Z,78.43
2022-11-25T02:54:04.533Z,79.01
2022-11-25T02:56:34.164Z,79.99
2022-11-25T02:59:13.568Z,79.05
2022-11-25T03:01:40.926Z,79.26
2022-11-25T03:04:07.971Z,79.24
2022-11-25T03:06:35.408Z,80.03
2022-11-25T03:09:02.518Z,78.98
2022-11-25T03:11:48.515Z,79.80
2022-11-25T03:14:15.589Z,79.60
2022-11-25T03:16:45.698Z,79.76
2022-11-25T03:19:13.190Z,80.03
2022-11-25T03:21:39.977Z,80.37
2022-11-25T03:24:07.269Z,80.47
2022-11-25T03:26:35.008Z,79.98
2022-11-25T03:29:02.000Z,80.47
2022-11-25T03:31:29.166Z,79.26
2022-11-25T03:33:56.522Z,75.75
2022-11-25T03:36:23.375Z,73.08
2022-11-25T03:38:50.199Z,72.36
2022-11-25T03:41:17.529Z,69.77
2022-11-25T03:43:44.424Z,69.96
2022-11-25T03:46:11.284Z,70.15
2022-11-25T03:48:38.567Z,69.89
2022-11-25T03:51:05.474Z,69.43
2022-11-25T03:53:32.296Z,68.53
2022-11-25T03:55:59.534Z,68.32
2022-11-25T03:58:26.225Z,68.35
2022-11-25T04:00:55.499Z,68.70
2022-11-25T04:03:23.036Z,69.06
2022-11-25T04:05:49.887Z,68.73
2022-11-25T04:08:18.414Z,68.90
2022-11-25T04:10:45.838Z,68.60
2022-11-25T04:13:12.550Z,69.22
2022-11-25T04:15:45.951Z,68.95
2022-11-25T04:18:13.554Z,68.93
2022-11-25T04:20:40.616Z,68.35
2022-11-25T04:23:08.069Z,69.68
2022-11-25T04:25:36.280Z,69.88
2022-11-25T04:28:03.892Z,70.93
2022-11-25T04:30:31.065Z,70.74
2022-11-25T04:32:58.866Z,72.54
2022-11-25T04:35:25.807Z,74.37
2022-11-25T04:37:52.977Z,75.96
2022-11-25T04:40:20.000Z,75.44
2022-11-25T04:42:48.350Z,77.00
2022-11-25T04:45:24.092Z,78.64
2022-11-25T04:47:57.426Z,78.52
2022-11-25T04:50:34.475Z,79.36
2022-11-25T04:53:01.677Z,77.79
2022-11-25T04:55:28.584Z,77.81
2022-11-25T04:57:55.973Z,78.20
2022-11-25T05:00:23.211Z,77.50
2022-11-25T05:02:50.416Z,77.32
2022-11-25T05:05:17.469Z,76.39
2022-11-25T05:07:46.065Z,76.02
2022-11-25T05:10:13.312Z,76.62
2022-11-25T05:12:42.010Z,77.81
2022-11-25T05:15:09.747Z,77.89
2022-11-25T05:17:37.686Z,77.99
2022-11-25T05:20:14.571Z,75.78
2022-11-25T05:22:41.532Z,75.78
2022-11-25T05:25:09.083Z,74.37
2022-11-25T05:27:41.758Z,73.35
2022-11-25T05:30:12.237Z,73.24
2022-11-25T05:32:44.935Z,73.19
2022-11-25T05:35:21.207Z,73.07
2022-11-25T05:37:48.310Z,71.97
2022-11-25T05:40:16.430Z,72.01
2022-11-25T05:42:44.169Z,71.37
2022-11-25T05:45:11.919Z,71.72
2022-11-25T05:47:41.443Z,71.25
2022-11-25T05:58:41.106Z,76.54
2022-11-25T06:01:11.449Z,76.66
2022-11-25T06:03:57.904Z,78.43
2022-11-25T06:06:26.970Z,86.11
2022-11-25T06:09:00.416Z,76.88
2022-11-25T06:11:27.375Z,72.06
2022-11-25T06:16:44.563Z,69.50
2022-11-25T08:25:50.668Z,51.74
2022-11-25T08:28:17.977Z,51.16
2022-11-25T08:30:44.945Z,51.71
2022-11-25T08:35:56.199Z,50.58
2022-11-25T08:38:24.685Z,50.66
2022-11-25T08:40:53.289Z,50.27
2022-11-25T08:43:56.880Z,50.58
2022-11-25T08:49:27.132Z,50.46
2022-11-25T08:51:57.412Z,51.51
2022-11-25T08:54:30.841Z,52.39
2022-11-25T08:57:03.058Z,51.26
2022-11-25T08:59:31.150Z,51.48
2022-11-25T09:02:05.306Z,51.12
2022-11-25T09:05:13.795Z,51.42
2022-11-25T09:07:53.920Z,51.65
2022-11-25T09:10:37.711Z,50.48
2022-11-25T09:34:41.668Z,48.41
2022-11-25T09:37:44.574Z,48.54
2022-11-25T09:40:19.828Z,48.32
2022-11-25T09:43:51.785Z,49.49
2022-11-25T09:47:10.209Z,50.32
2022-11-25T09:50:06.563Z,48.69
2022-11-25T09:52:35.304Z,47.98
2022-11-25T09:55:18.232Z,49.43
2022-11-25T09:58:13.794Z,48.32
2022-11-25T10:06:12.049Z,49.00
2022-11-25T10:08:43.623Z,48.53
2022-11-25T10:11:53.200Z,48.78
2022-11-25T10:14:29.190Z,47.94
2022-11-25T10:17:18.904Z,48.97
2022-11-25T10:23:17.290Z,50.67
2022-11-25T10:25:51.996Z,49.37
2022-11-25T10:28:30.970Z,49.42
2022-11-25T10:32:01.078Z,48.48
2022-11-25T10:35:06.694Z,48.95
2022-11-25T10:37:53.469Z,49.48
2022-11-25T10:40:27.311Z,49.79
2022-11-25T10:47:12.152Z,49.57
2022-11-25T10:50:14.863Z,49.09
2022-11-25T10:52:57.478Z,49.05
2022-11-25T10:55:50.713Z,49.51
2022-11-25T10:58:29.597Z,48.89
2022-11-25T11:10:46.389Z,50.34
2022-11-25T11:13:36.759Z,50.28
2022-11-25T11:16:32.648Z,50.46
2022-11-25T11:22:01.172Z,51.00
2022-11-25T11:32:36.593Z,52.52
2022-11-25T11:44:57.348Z,53.21
2022-11-25T12:08:16.566Z,53.95
2022-11-25T12:11:46.107Z,53.95
2022-11-25T12:14:39.143Z,54.24
2022-11-25T12:22:14.056Z,53.77
2022-11-25T12:28:52.908Z,54.05
2022-11-25T12:31:27.976Z,54.16
2022-11-25T12:34:23.381Z,54.20
2022-11-25T12:37:50.703Z,53.95
2022-11-25T12:40:52.061Z,54.03
2022-11-25T12:47:51.885Z,53.37
2022-11-25T12:49:54.391Z,54.34
2022-11-25T12:52:42.710Z,53.80
2022-11-25T12:55:24.209Z,54.29
2022-11-25T12:58:42.139Z,53.75
2022-11-25T13:05:39.577Z,54.79
2022-11-25T13:09:00.550Z,53.86
2022-11-25T13:15:58.975Z,53.99
2022-11-25T13:18:16.501Z,54.74
2022-11-25T13:23:35.224Z,54.84
2022-11-25T13:26:30.464Z,54.56
2022-11-25T13:29:00.725Z,54.44
2022-11-25T13:34:39.978Z,54.69
2022-11-25T13:37:59.801Z,55.06
2022-11-25T13:40:33.569Z,53.88
2022-11-25T13:43:27.609Z,53.82
2022-11-25T13:46:15.430Z,53.17
2022-11-25T13:52:06.389Z,54.70
2022-11-25T14:01:09.524Z,54.04
2022-11-25T14:03:52.261Z,54.07
2022-11-25T14:07:05.617Z,54.65
2022-11-25T14:13:50.570Z,53.46
2022-11-25T14:17:31.049Z,53.17
2022-11-25T14:24:17.497Z,52.47
2022-11-25T14:30:15.108Z,53.21
2022-11-25T14:33:10.241Z,53.66
2022-11-25T14:52:43.092Z,53.86
2022-11-25T14:55:12.262Z,54.13
2022-11-25T14:58:58.546Z,55.02
2022-11-25T15:29:21.702Z,73.24
2022-11-25T15:31:52.584Z,64.22
2022-11-25T15:34:28.031Z,62.14
2022-11-25T15:36:55.037Z,62.89
2022-11-25T15:39:22.002Z,64.27
2022-11-25T15:42:26.920Z,63.06
2022-11-25T15:45:23.262Z,63.17
2022-11-25T15:47:51.642Z,64.36
2022-11-25T15:50:27.811Z,64.75
2022-11-25T15:52:58.454Z,65.42
2022-11-25T15:55:44.472Z,64.01
2022-11-25T15:58:20.839Z,63.27
2022-11-25T16:01:20.675Z,63.40
2022-11-25T16:03:55.604Z,63.18
2022-11-25T16:06:28.612Z,63.71
2022-11-25T16:08:58.412Z,62.95
2022-11-25T16:11:32.007Z,63.17
2022-11-25T16:14:37.112Z,63.42
2022-11-25T16:17:21.550Z,63.20
2022-11-25T16:19:52.331Z,63.50
2022-11-25T16:22:27.573Z,63.76
2022-11-25T16:25:02.156Z,63.82
2022-11-25T16:27:32.158Z,64.24
2022-11-25T16:30:06.543Z,64.85
2022-11-25T16:32:45.981Z,65.30
2022-11-25T16:35:20.370Z,66.30
2022-11-25T16:38:02.455Z,65.84
2022-11-25T16:40:42.800Z,66.28
2022-11-25T16:43:27.239Z,66.41
2022-11-25T16:45:55.768Z,67.16
2022-11-25T16:48:24.805Z,66.87
2022-11-25T16:51:12.323Z,67.51
2022-11-25T16:53:41.296Z,65.99
2022-11-25T16:56:18.992Z,66.68
2022-11-25T16:59:03.635Z,66.84
2022-11-25T17:01:34.157Z,67.43
2022-11-25T17:04:02.504Z,68.43
2022-11-25T17:06:34.971Z,68.46
2022-11-25T17:09:02.005Z,68.79
2022-11-25T17:11:51.076Z,68.06
2022-11-25T17:14:34.013Z,68.84
2022-11-25T17:17:02.001Z,69.36
2022-11-25T17:19:51.084Z,70.08
2022-11-25T17:22:20.793Z,70.95
2022-11-25T17:24:53.887Z,72.06
2022-11-25T17:28:06.187Z,72.62
2022-11-25T17:33:22.210Z,74.66
2022-11-25T17:35:49.399Z,74.77
2022-11-25T17:38:21.149Z,74.62
2022-11-25T17:40:48.607Z,75.34
2022-11-25T17:43:21.355Z,73.64
2022-11-25T17:45:50.972Z,74.07
2022-11-25T17:48:18.719Z,75.24
2022-11-25T17:53:40.212Z,75.09
2022-11-25T17:56:29.981Z,75.55
2022-11-25T17:59:01.860Z,75.85
2022-11-25T18:01:29.170Z,76.57
2022-11-25T18:03:56.201Z,76.83
2022-11-25T18:06:23.685Z,76.54
2022-11-25T18:08:50.716Z,76.09
2022-11-25T18:11:19.796Z,75.67
2022-11-25T18:13:48.594Z,75.62
2022-11-25T18:16:19.581Z,75.89
2022-11-25T18:18:46.972Z,75.67
2022-11-25T18:21:17.049Z,75.61
2022-11-25T18:23:52.616Z,76.84
2022-11-25T18:26:24.045Z,77.76
2022-11-25T18:28:51.383Z,78.76
2022-11-25T18:31:19.129Z,78.60
2022-11-25T18:33:46.360Z,78.56
2022-11-25T18:36:14.335Z,78.17
2022-11-25T18:38:41.303Z,76.83
2022-11-25T18:41:17.290Z,76.94
2022-11-25T18:43:44.188Z,76.78
2022-11-25T18:46:12.623Z,76.63
2022-11-25T18:48:41.004Z,76.32
2022-11-25T18:51:12.338Z,76.58
2022-11-25T18:53:39.081Z,76.88
2022-11-25T18:56:06.186Z,78.40
2022-11-25T18:58:33.239Z,80.02
2022-11-25T19:01:06.043Z,80.11
2022-11-25T19:06:15.548Z,79.22
2022-11-25T19:08:42.887Z,79.08
2022-11-25T19:11:19.735Z,78.17
2022-11-25T19:13:55.604Z,77.70
2022-11-25T19:16:26.273Z,77.64
2022-11-25T19:18:57.318Z,76.93
2022-11-25T19:21:24.664Z,77.42
2022-11-25T19:23:51.547Z,76.71
2022-11-25T19:26:24.622Z,76.01
2022-11-25T19:28:58.487Z,75.65
2022-11-25T19:31:45.375Z,76.23
2022-11-25T19:34:26.357Z,77.13
2022-11-25T19:36:54.401Z,77.37
2022-11-25T19:39:21.366Z,77.44
2022-11-25T19:41:48.714Z,77.45
2022-11-25T19:44:16.175Z,78.16
2022-11-25T19:47:14.344Z,78.58
2022-11-25T19:49:40.436Z,77.77
2022-11-25T19:52:18.648Z,77.02
2022-11-25T19:54:49.961Z,75.51
2022-11-25T19:57:21.233Z,75.58
2022-11-25T19:59:50.085Z,76.00
2022-11-25T20:02:20.915Z,76.27
2022-11-25T20:04:52.049Z,76.08
2022-11-25T20:07:20.809Z,76.19
2022-11-25T20:09:49.553Z,77.81
2022-11-25T20:12:21.799Z,79.09
2022-11-25T20:14:49.831Z,79.23
2022-11-25T20:17:25.229Z,80.31
2022-11-25T20:19:57.649Z,80.21
2022-11-25T20:22:33.681Z,81.93
2022-11-25T20:25:07.831Z,82.74
2022-11-25T20:27:35.551Z,84.43
2022-11-25T20:30:03.114Z,81.94
2022-11-25T20:32:48.545Z,81.31
2022-11-25T20:35:16.967Z,82.17
2022-11-25T20:38:00.952Z,82.04
2022-11-25T20:40:38.355Z,81.66
2022-11-25T20:43:07.264Z,82.32
2022-11-25T20:45:34.432Z,83.17
2022-11-25T20:48:02.154Z,84.54
2022-11-25T20:50:30.973Z,83.60
2022-11-25T20:53:00.932Z,83.30
2022-11-25T20:55:32.586Z,84.77
2022-11-25T20:58:00.331Z,85.97
2022-11-25T21:00:29.427Z,85.63
2022-11-25T21:02:59.045Z,85.89
2022-11-25T21:05:28.006Z,84.55
2022-11-25T21:07:55.760Z,84.60
2022-11-25T21:10:29.676Z,84.83
2022-11-25T21:13:03.581Z,83.70
2022-11-25T21:15:30.810Z,82.31
2022-11-25T21:18:00.412Z,82.66
2022-11-25T21:20:29.787Z,81.81
2022-11-25T21:23:08.891Z,80.86
2022-11-25T21:25:42.393Z,79.98
2022-11-25T21:28:17.903Z,81.32
2022-11-25T21:30:47.231Z,80.86
2022-11-25T21:33:15.241Z,79.72
2022-11-25T21:35:47.319Z,80.59
2022-11-25T21:38:39.065Z,79.62
2022-11-25T21:41:06.503Z,80.68
2022-11-25T21:43:34.256Z,79.69
2022-11-25T21:48:48.607Z,80.05
2022-11-25T21:51:26.556Z,80.12
2022-11-25T21:53:54.257Z,80.84
2022-11-25T21:56:24.110Z,81.24
2022-11-25T21:58:52.149Z,80.35
2022-11-25T22:01:23.988Z,80.56
2022-11-25T22:03:51.232Z,80.90
2022-11-25T22:09:13.093Z,80.49
2022-11-25T22:12:03.153Z,80.34
2022-11-25T22:14:52.767Z,81.24
2022-11-25T22:17:21.865Z,80.75
2022-11-25T22:19:52.944Z,82.21
2022-11-25T22:22:36.781Z,81.91
2022-11-25T22:25:11.991Z,82.08
2022-11-25T22:27:39.700Z,81.98
2022-11-25T22:30:07.483Z,82.77
2022-11-25T22:32:34.605Z,83.06
2022-11-25T22:35:02.038Z,83.18
2022-11-25T22:37:29.055Z,83.23
2022-11-25T22:39:55.976Z,83.34
2022-11-25T22:42:31.266Z,83.81
2022-11-25T22:45:00.692Z,84.62
2022-11-25T22:47:33.293Z,86.05
2022-11-25T22:50:02.696Z,85.52
2022-11-25T22:52:32.169Z,84.44
2022-11-25T22:55:03.158Z,83.95
2022-11-25T22:57:30.310Z,83.94
2022-11-25T22:59:57.036Z,82.96
2022-11-25T23:02:32.190Z,83.66
2022-11-25T23:05:02.273Z,84.27
2022-11-25T23:07:49.206Z,84.40
2022-11-25T23:10:20.263Z,84.06
2022-11-25T23:12:47.361Z,83.74
2022-11-25T23:15:16.399Z,84.22
2022-11-25T23:17:48.264Z,84.66
2022-11-25T23:20:22.436Z,84.64
2022-11-25T23:22:49.251Z,84.63
2022-11-25T23:25:19.177Z,84.99
2022-11-25T23:27:46.159Z,84.42
2022-11-25T23:30:18.507Z,85.71
2022-11-25T23:32:46.148Z,86.64
2022-11-25T23:35:16.559Z,87.02
2022-11-25T23:37:44.042Z,87.44
2022-11-25T23:40:19.156Z,85.46
2022-11-25T23:42:46.142Z,85.07
2022-11-25T23:45:18.613Z,85.09
2022-11-25T23:47:47.636Z,83.63
2022-11-25T23:50:27.022Z,83.67
2022-11-25T23:53:01.656Z,83.31
2022-11-25T23:55:35.271Z,82.94
2022-11-25T23:58:04.599Z,84.78
